createdAt,value
2022-08-09T00:00:12.062Z,96714.31
2022-08-09T00:02:49.140Z,96713.38
2022-08-09T00:06:15.774Z,96716.31
2022-08-09T00:08:09.937Z,96709.28
2022-08-09T00:10:39.179Z,96700.59
2022-08-09T00:13:16.879Z,96704.28
2022-08-09T00:15:59.749Z,96706.75
2022-08-09T00:18:34.994Z,96697.88
2022-08-09T00:21:05.204Z,96692.56
2022-08-09T00:23:54.641Z,96702.00
2022-08-09T00:26:32.190Z,96710.75
2022-08-09T00:29:02.252Z,96699.91
2022-08-09T00:31:57.606Z,96703.84
2022-08-09T00:34:19.483Z,96700.69
2022-08-09T00:36:50.165Z,96700.66
2022-08-09T00:40:13.056Z,96696.66
2022-08-09T00:44:11.608Z,96705.53
2022-08-09T00:44:55.182Z,96713.50
2022-08-09T00:47:24.668Z,96706.19
2022-08-09T00:49:56.801Z,96703.03
2022-08-09T00:52:30.381Z,96709.94
2022-08-09T00:55:01.028Z,96702.88
2022-08-09T00:57:34.581Z,96712.34
2022-08-09T01:00:21.052Z,96692.16
2022-08-09T01:02:57.796Z,96701.66
2022-08-09T01:05:53.355Z,96698.44
2022-08-09T01:08:29.232Z,96692.31
2022-08-09T01:11:21.434Z,96697.66
2022-08-09T01:14:00.000Z,96687.25
2022-08-09T01:16:32.853Z,96693.00
2022-08-09T01:19:08.413Z,96687.88
2022-08-09T01:21:53.520Z,96690.81
2022-08-09T01:24:36.164Z,96698.00
2022-08-09T01:27:08.677Z,96698.22
2022-08-09T01:29:55.264Z,96698.84
2022-08-09T01:32:34.192Z,96698.94
2022-08-09T01:35:37.367Z,96701.72
2022-08-09T01:38:24.618Z,96701.00
2022-08-09T01:41:05.014Z,96699.56
2022-08-09T01:43:41.799Z,96692.44
2022-08-09T01:46:26.831Z,96698.91
2022-08-09T01:48:59.775Z,96696.56
2022-08-09T01:51:32.309Z,96692.78
2022-08-09T01:54:02.787Z,96694.34
2022-08-09T01:56:33.241Z,96694.22
2022-08-09T01:59:07.272Z,96700.50
2022-08-09T02:01:59.013Z,96697.59
2022-08-09T02:04:26.233Z,96705.56
2022-08-09T02:09:42.402Z,96694.50
2022-08-09T02:12:13.447Z,96688.88
2022-08-09T02:14:51.810Z,96693.03
2022-08-09T02:17:55.069Z,96694.44
2022-08-09T02:20:12.216Z,96692.72
2022-08-09T02:22:52.956Z,96692.03
2022-08-09T02:25:29.776Z,96696.09
2022-08-09T02:28:05.760Z,96697.03
2022-08-09T02:30:46.434Z,96700.25
2022-08-09T02:33:18.553Z,96695.94
2022-08-09T02:36:03.369Z,96681.19
2022-08-09T02:38:35.550Z,96690.06
2022-08-09T02:41:08.161Z,96690.00
2022-08-09T02:43:53.719Z,96692.69
2022-08-09T02:46:27.455Z,96694.16
2022-08-09T02:48:58.805Z,96695.28
2022-08-09T02:51:36.934Z,96689.53
2022-08-09T02:54:10.447Z,96684.59
2022-08-09T02:56:42.668Z,96686.72
2022-08-09T02:59:26.303Z,96690.41
2022-08-09T03:02:07.142Z,96687.28
2022-08-09T03:04:40.739Z,96681.66
2022-08-09T03:07:12.475Z,96680.16
2022-08-09T03:09:56.258Z,96686.47
2022-08-09T03:12:25.953Z,96689.44
2022-08-09T03:14:54.146Z,96682.28
2022-08-09T03:17:26.767Z,96691.84
2022-08-09T03:20:03.395Z,96680.72
2022-08-09T03:22:44.485Z,96680.72
2022-08-09T03:25:25.946Z,96681.28
2022-08-09T03:28:05.492Z,96687.09
2022-08-09T03:30:39.495Z,96684.28
2022-08-09T03:33:17.413Z,96695.81
2022-08-09T03:36:13.347Z,96685.59
2022-08-09T03:38:41.670Z,96692.66
2022-08-09T03:41:14.605Z,96693.56
2022-08-09T03:44:02.861Z,96695.16
2022-08-09T03:46:31.862Z,96691.44
2022-08-09T03:49:03.885Z,96694.19
2022-08-09T03:51:56.911Z,96685.59
2022-08-09T03:54:29.549Z,96689.44
2022-08-09T03:57:01.211Z,96691.28
2022-08-09T03:59:43.263Z,96696.75
2022-08-09T04:02:19.884Z,96699.25
2022-08-09T04:04:56.338Z,96696.00
2022-08-09T04:07:46.991Z,96703.03
2022-08-09T04:10:15.525Z,96694.41
2022-08-09T04:12:50.854Z,96701.81
2022-08-09T04:15:39.258Z,96704.19
2022-08-09T04:18:09.531Z,96699.72
2022-08-09T04:20:43.996Z,96695.44
2022-08-09T04:23:16.823Z,96699.31
2022-08-09T04:25:51.651Z,96707.28
2022-08-09T04:28:30.672Z,96707.63
2022-08-09T04:31:05.827Z,96713.97
2022-08-09T04:33:53.049Z,96713.44
2022-08-09T04:36:28.689Z,96722.94
2022-08-09T04:38:59.182Z,96720.69
2022-08-09T04:41:32.251Z,96730.22
2022-08-09T04:44:05.998Z,96731.78
2022-08-09T04:46:38.047Z,96733.19
2022-08-09T04:49:47.712Z,96737.66
2022-08-09T04:52:18.610Z,96733.66
2022-08-09T04:54:54.624Z,96732.44
2022-08-09T04:57:24.536Z,96740.56
2022-08-09T04:59:54.564Z,96741.84
2022-08-09T05:02:23.877Z,96737.66
2022-08-09T05:04:55.081Z,96740.56
2022-08-09T05:07:23.956Z,96744.63
2022-08-09T05:09:51.448Z,96742.88
2022-08-09T05:12:18.990Z,96756.03
2022-08-09T05:14:49.802Z,96751.13
2022-08-09T05:18:39.732Z,96756.81
2022-08-09T05:20:05.430Z,96744.97
2022-08-09T05:23:51.182Z,96754.47
2022-08-09T05:25:21.622Z,96754.38
2022-08-09T05:27:50.521Z,96759.91
2022-08-09T05:30:19.552Z,96759.41
2022-08-09T05:32:50.971Z,96752.59
2022-08-09T05:35:21.970Z,96762.75
2022-08-09T05:37:50.445Z,96762.69
2022-08-09T05:40:18.659Z,96760.22
2022-08-09T05:42:46.901Z,96767.44
2022-08-09T05:45:14.255Z,96764.84
2022-08-09T05:47:52.951Z,96762.25
2022-08-09T05:50:36.089Z,96774.28
2022-08-09T05:53:21.423Z,96769.03
2022-08-09T05:55:58.759Z,96763.13
2022-08-09T05:58:25.913Z,96775.59
2022-08-09T06:00:53.911Z,96774.06
2022-08-09T06:03:21.119Z,96776.59
2022-08-09T06:05:57.423Z,96772.47
2022-08-09T06:08:33.542Z,96776.31
2022-08-09T06:11:01.162Z,96781.78
2022-08-09T06:13:34.095Z,96779.44
2022-08-09T06:16:04.989Z,96774.25
2022-08-09T06:18:32.916Z,96786.75
2022-08-09T06:21:01.808Z,96785.34
2022-08-09T06:23:57.627Z,96784.06
2022-08-09T06:26:22.409Z,96789.19
2022-08-09T06:29:00.087Z,96791.50
2022-08-09T06:31:39.629Z,96788.22
2022-08-09T06:34:22.855Z,96785.53
2022-08-09T06:36:57.279Z,96802.50
2022-08-09T06:39:48.294Z,96789.91
2022-08-09T06:42:30.291Z,96794.16
2022-08-09T06:44:58.406Z,96797.28
2022-08-09T06:47:25.663Z,96799.47
2022-08-09T06:50:13.299Z,96795.44
2022-08-09T06:52:46.981Z,96799.34
2022-08-09T06:55:26.364Z,96794.94
2022-08-09T06:58:01.384Z,96796.31
2022-08-09T07:00:54.523Z,96798.75
2022-08-09T07:03:26.923Z,96802.88
2022-08-09T07:06:03.431Z,96802.22
2022-08-09T07:08:32.391Z,96797.03
2022-08-09T07:10:59.559Z,96795.47
2022-08-09T07:13:28.180Z,96799.59
2022-08-09T07:16:42.209Z,96800.88
2022-08-09T07:18:47.352Z,96803.63
2022-08-09T07:21:14.578Z,96805.63
2022-08-09T07:23:56.594Z,96805.34
2022-08-09T07:26:25.937Z,96807.03
2022-08-09T07:29:01.362Z,96800.66
2022-08-09T07:31:38.654Z,96803.44
2022-08-09T07:34:20.626Z,96802.94
2022-08-09T07:36:52.847Z,96802.94
2022-08-09T07:39:40.184Z,96803.47
2022-08-09T07:42:08.499Z,96810.09
2022-08-09T07:44:52.062Z,96808.63
2022-08-09T07:47:21.196Z,96807.34
2022-08-09T07:50:04.813Z,96816.53
2022-08-09T07:52:36.544Z,96809.94
2022-08-09T07:55:09.596Z,96801.97
2022-08-09T07:57:47.230Z,96806.47
2022-08-09T08:00:20.296Z,96802.66
2022-08-09T08:03:01.594Z,96810.22
2022-08-09T08:05:53.685Z,96805.78
2022-08-09T08:09:02.218Z,96807.84
2022-08-09T08:12:10.306Z,96803.44
2022-08-09T08:13:57.185Z,96805.69
2022-08-09T08:16:29.740Z,96816.88
2022-08-09T08:18:59.788Z,96806.81
2022-08-09T08:21:30.326Z,96809.75
2022-08-09T08:23:57.491Z,96809.06
2022-08-09T08:26:54.856Z,96811.22
2022-08-09T08:29:20.328Z,96804.69
2022-08-09T08:32:03.666Z,96797.97
2022-08-09T08:34:34.716Z,96813.09
2022-08-09T08:37:03.938Z,96803.28
2022-08-09T08:39:39.241Z,96818.16
2022-08-09T08:42:11.796Z,96815.59
2022-08-09T08:44:41.408Z,96811.72
2022-08-09T08:47:12.796Z,96812.50
2022-08-09T08:49:46.944Z,96811.72
2022-08-09T08:52:57.683Z,96821.84
2022-08-09T08:55:10.324Z,96820.13
2022-08-09T08:57:38.012Z,96818.59
2022-08-09T09:00:20.445Z,96817.34
2022-08-09T09:03:08.366Z,96816.03
2022-08-09T09:05:58.457Z,96809.81
2022-08-09T09:08:42.042Z,96817.28
2022-08-09T09:11:17.181Z,96811.31
2022-08-09T09:13:56.851Z,96809.16
2022-08-09T09:16:29.818Z,96807.69
2022-08-09T09:21:56.628Z,96809.09
2022-08-09T09:24:30.258Z,96818.88
2022-08-09T09:27:01.105Z,96812.25
2022-08-09T09:29:57.990Z,96804.66
2022-08-09T09:32:35.071Z,96808.47
2022-08-09T09:35:07.794Z,96814.00
2022-08-09T09:37:40.490Z,96817.19
2022-08-09T09:40:10.053Z,96819.13
2022-08-09T09:42:39.079Z,96815.63
2022-08-09T09:45:10.288Z,96817.97
2022-08-09T09:47:56.236Z,96822.19
2022-08-09T09:50:50.933Z,96814.88
2022-08-09T09:53:21.242Z,96822.69
2022-08-09T09:55:57.573Z,96822.41
2022-08-09T09:58:47.065Z,96814.59
2022-08-09T10:01:31.544Z,96828.34
2022-08-09T10:04:15.982Z,96820.88
2022-08-09T10:06:46.940Z,96811.81
2022-08-09T10:09:22.204Z,96813.97
2022-08-09T10:12:14.571Z,96824.16
2022-08-09T10:14:48.391Z,96809.59
2022-08-09T10:17:39.701Z,96821.16
2022-08-09T10:20:15.113Z,96816.16
2022-08-09T10:22:42.687Z,96815.50
2022-08-09T10:25:11.762Z,96817.69
2022-08-09T10:27:56.832Z,96806.00
2022-08-09T10:34:04.518Z,96814.84
2022-08-09T10:36:02.999Z,96809.53
2022-08-09T10:38:54.336Z,96813.94
2022-08-09T10:41:20.582Z,96806.22
2022-08-09T10:43:59.456Z,96814.16
2022-08-09T10:47:00.648Z,96802.88
2022-08-09T10:49:51.281Z,96809.84
2022-08-09T10:52:26.458Z,96809.13
2022-08-09T10:54:53.908Z,96810.25
2022-08-09T10:57:23.257Z,96797.81
2022-08-09T10:59:57.289Z,96805.78
2022-08-09T11:03:47.120Z,96804.50
2022-08-09T11:05:30.019Z,96804.06
2022-08-09T11:08:43.566Z,96811.13
2022-08-09T11:11:16.438Z,96804.28
2022-08-09T11:13:51.427Z,96807.50
2022-08-09T11:16:40.958Z,96806.97
2022-08-09T11:19:10.601Z,96804.16
2022-08-09T11:22:05.154Z,96800.88
2022-08-09T11:25:15.680Z,96807.75
2022-08-09T11:28:04.566Z,96815.50
2022-08-09T11:30:34.651Z,96802.66
2022-08-09T11:33:09.286Z,96802.78
2022-08-09T11:35:49.578Z,96803.16
2022-08-09T11:38:32.003Z,96811.75
2022-08-09T11:41:13.428Z,96806.09
2022-08-09T11:43:42.900Z,96808.66
2022-08-09T11:46:10.684Z,96815.88
2022-08-09T11:48:53.801Z,96809.91
2022-08-09T11:52:56.796Z,96802.34
2022-08-09T11:54:13.410Z,96807.38
2022-08-09T11:56:42.209Z,96808.47
2022-08-09T11:59:30.379Z,96807.38
2022-08-09T12:02:34.412Z,96806.03
2022-08-09T12:04:58.750Z,96795.16
2022-08-09T12:07:41.345Z,96812.09
2022-08-09T12:10:32.002Z,96797.78
2022-08-09T12:13:03.691Z,96800.03
2022-08-09T12:15:49.568Z,96798.91
2022-08-09T12:18:29.563Z,96794.19
2022-08-09T12:21:00.629Z,96791.28
2022-08-09T12:23:56.500Z,96770.81
2022-08-09T12:26:25.867Z,96780.91
2022-08-09T12:29:10.357Z,96785.91
2022-08-09T12:31:58.203Z,96780.25
2022-08-09T12:34:39.937Z,96781.06
2022-08-09T12:37:21.689Z,96777.63
2022-08-09T12:40:11.626Z,96771.38
2022-08-09T12:42:44.307Z,96777.00
2022-08-09T12:45:34.057Z,96771.09
2022-08-09T12:47:59.843Z,96764.16
2022-08-09T12:50:28.604Z,96777.41
2022-08-09T12:53:08.586Z,96768.66
2022-08-09T12:56:12.544Z,96768.38
2022-08-09T12:58:27.852Z,96767.75
2022-08-09T13:00:56.607Z,96765.91
2022-08-09T13:03:54.116Z,96772.78
2022-08-09T13:06:35.634Z,96764.06
2022-08-09T13:09:14.285Z,96776.09
2022-08-09T13:11:47.180Z,96773.59
2022-08-09T13:14:42.959Z,96768.78
2022-08-09T13:17:13.570Z,96763.91
2022-08-09T13:20:08.644Z,96762.88
2022-08-09T13:22:45.735Z,96765.28
2022-08-09T13:25:20.635Z,96764.06
2022-08-09T13:27:55.085Z,96757.25
2022-08-09T13:30:50.335Z,96754.31
2022-08-09T13:33:22.359Z,96755.84
2022-08-09T13:36:37.348Z,96744.03
2022-08-09T13:38:57.434Z,96750.91
2022-08-09T13:41:54.005Z,96757.19
2022-08-09T13:44:13.630Z,96747.19
2022-08-09T13:47:27.537Z,96739.88
2022-08-09T13:49:37.861Z,96749.19
2022-08-09T13:52:09.067Z,96746.84
2022-08-09T13:54:42.911Z,96738.47
2022-08-09T13:57:37.112Z,96737.94
2022-08-09T14:00:17.875Z,96745.69
2022-08-09T14:03:03.016Z,96740.50
2022-08-09T14:05:59.406Z,96747.25
2022-08-09T14:08:20.804Z,96739.28
2022-08-09T14:10:52.628Z,96735.34
2022-08-09T14:13:27.997Z,96743.28
2022-08-09T14:16:14.202Z,96727.66
2022-08-09T14:18:45.774Z,96737.00
2022-08-09T14:21:23.103Z,96737.91
2022-08-09T14:23:54.787Z,96724.25
2022-08-09T14:26:30.553Z,96726.34
2022-08-09T14:29:03.127Z,96719.44
2022-08-09T14:31:35.800Z,96726.81
2022-08-09T14:34:17.664Z,96721.34
2022-08-09T14:36:55.426Z,96723.81
2022-08-09T14:39:45.445Z,96729.69
2022-08-09T14:42:09.743Z,96734.38
2022-08-09T14:44:48.420Z,96724.03
2022-08-09T14:47:39.757Z,96722.47
2022-08-09T14:50:05.317Z,96723.31
2022-08-09T14:52:33.159Z,96719.16
2022-08-09T14:55:01.242Z,96730.78
2022-08-09T14:57:31.809Z,96726.44
2022-08-09T14:59:59.385Z,96725.09
2022-08-09T15:02:28.182Z,96724.56
2022-08-09T15:04:57.150Z,96715.25
2022-08-09T15:07:25.776Z,96710.97
2022-08-09T15:10:07.615Z,96718.00
2022-08-09T15:12:38.672Z,96724.88
2022-08-09T15:15:12.019Z,96721.94
2022-08-09T15:17:42.149Z,96723.03
2022-08-09T15:20:15.375Z,96713.56
2022-08-09T15:24:01.170Z,96719.97
2022-08-09T15:25:52.966Z,96709.91
2022-08-09T15:28:27.981Z,96720.56
2022-08-09T15:31:07.349Z,96716.53
2022-08-09T15:34:17.709Z,96712.78
2022-08-09T15:36:28.664Z,96709.38
2022-08-09T15:38:58.745Z,96703.03
2022-08-09T15:41:31.316Z,96705.06
2022-08-09T15:44:03.632Z,96703.09
2022-08-09T15:46:33.098Z,96701.19
2022-08-09T15:49:21.658Z,96703.75
2022-08-09T15:52:05.062Z,96686.94
2022-08-09T15:54:46.230Z,96692.00
2022-08-09T15:57:18.947Z,96692.16
2022-08-09T16:00:05.518Z,96698.44
2022-08-09T16:02:32.769Z,96695.56
2022-08-09T16:05:03.910Z,96696.84
2022-08-09T16:07:38.791Z,96697.41
2022-08-09T16:10:11.263Z,96694.81
2022-08-09T16:12:50.596Z,96691.50
2022-08-09T16:16:12.355Z,96685.41
2022-08-09T16:18:08.941Z,96682.81
2022-08-09T16:20:37.948Z,96676.84
2022-08-09T16:23:08.644Z,96693.91
2022-08-09T16:25:40.392Z,96692.63
2022-08-09T16:28:08.343Z,96698.13
2022-08-09T16:30:40.927Z,96695.81
2022-08-09T16:33:15.783Z,96686.69
2022-08-09T16:35:56.692Z,96680.97
2022-08-09T16:38:27.008Z,96677.50
2022-08-09T16:40:54.257Z,96690.31
2022-08-09T16:43:22.887Z,96681.56
2022-08-09T16:45:53.788Z,96685.47
2022-08-09T16:48:50.621Z,96670.19
2022-08-09T16:51:14.235Z,96676.44
2022-08-09T16:54:08.906Z,96684.72
2022-08-09T16:56:31.608Z,96672.78
2022-08-09T16:59:01.125Z,96678.31
2022-08-09T17:01:33.601Z,96671.09
2022-08-09T17:04:01.795Z,96659.34
2022-08-09T17:06:31.861Z,96674.59
2022-08-09T17:09:43.591Z,96678.56
2022-08-09T17:11:48.170Z,96678.97
2022-08-09T17:14:27.346Z,96675.91
2022-08-09T17:16:59.847Z,96693.00
2022-08-09T17:20:12.645Z,96689.78
2022-08-09T17:22:29.057Z,96676.66
2022-08-09T17:25:10.200Z,96684.44
2022-08-09T17:27:48.700Z,96683.19
2022-08-09T17:30:17.098Z,96684.69
2022-08-09T17:32:47.104Z,96676.88
2022-08-09T17:35:14.752Z,96688.91
2022-08-09T17:38:11.770Z,96688.19
2022-08-09T17:40:32.695Z,96691.53
2022-08-09T17:43:10.782Z,96693.84
2022-08-09T17:46:02.891Z,96679.72
2022-08-09T17:48:33.841Z,96684.38
2022-08-09T17:51:08.944Z,96688.59
2022-08-09T17:53:48.178Z,96696.19
2022-08-09T17:56:27.953Z,96700.16
2022-08-09T17:59:03.275Z,96698.56
2022-08-09T18:01:58.093Z,96699.34
2022-08-09T18:04:20.012Z,96697.78
2022-08-09T18:06:54.066Z,96705.16
2022-08-09T18:09:25.137Z,96706.81
2022-08-09T18:12:14.655Z,96700.34
2022-08-09T18:14:53.362Z,96703.09
2022-08-09T18:17:27.644Z,96702.00
2022-08-09T18:20:56.439Z,96700.00
2022-08-09T18:22:56.354Z,96699.25
2022-08-09T18:25:53.377Z,96700.81
2022-08-09T18:28:21.735Z,96707.28
2022-08-09T18:30:58.661Z,96708.44
2022-08-09T18:33:26.150Z,96707.09
2022-08-09T18:35:59.426Z,96709.63
2022-08-09T18:38:27.701Z,96712.31
2022-08-09T18:40:55.468Z,96714.88
2022-08-09T18:43:23.499Z,96713.63
2022-08-09T18:46:49.452Z,96715.47
2022-08-09T18:48:38.345Z,96718.34
2022-08-09T18:51:09.828Z,96726.69
2022-08-09T18:54:00.548Z,96722.81
2022-08-09T18:56:28.240Z,96726.06
2022-08-09T18:58:56.967Z,96731.13
2022-08-09T19:01:25.651Z,96727.63
2022-08-09T19:04:06.278Z,96734.78
2022-08-09T19:06:38.677Z,96744.31
2022-08-09T19:09:07.470Z,96738.09
2022-08-09T19:11:38.268Z,96745.03
2022-08-09T19:14:07.057Z,96739.66
2022-08-09T19:16:35.941Z,96736.97
2022-08-09T19:19:26.162Z,96742.66
2022-08-09T19:22:06.557Z,96744.16
2022-08-09T19:25:07.406Z,96747.34
2022-08-09T19:27:23.534Z,96746.44
2022-08-09T19:30:25.305Z,96750.75
2022-08-09T19:32:44.353Z,96748.38
2022-08-09T19:35:11.579Z,96749.25
2022-08-09T19:37:54.113Z,96750.38
2022-08-09T19:40:24.373Z,96755.69
2022-08-09T19:43:05.430Z,96761.94
2022-08-09T19:45:43.662Z,96758.25
2022-08-09T19:48:11.887Z,96763.25
2022-08-09T19:50:48.831Z,96757.34
2022-08-09T19:53:20.498Z,96757.06
2022-08-09T19:56:02.224Z,96762.69
2022-08-09T19:58:33.777Z,96759.88
2022-08-09T20:01:01.525Z,96772.84
2022-08-09T20:04:17.954Z,96765.19
2022-08-09T20:06:22.937Z,96765.81
2022-08-09T20:08:55.387Z,96765.34
2022-08-09T20:11:42.983Z,96768.94
2022-08-09T20:14:16.401Z,96772.69
2022-08-09T20:16:53.800Z,96772.38
2022-08-09T20:19:48.901Z,96768.63
2022-08-09T20:22:14.434Z,96768.31
2022-08-09T20:24:42.762Z,96764.88
2022-08-09T20:27:21.875Z,96764.19
2022-08-09T20:29:49.375Z,96766.06
2022-08-09T20:32:30.373Z,96765.38
2022-08-09T20:35:06.045Z,96772.75
2022-08-09T20:38:18.992Z,96765.69
2022-08-09T20:40:26.535Z,96765.94
2022-08-09T20:43:11.853Z,96769.13
2022-08-09T20:46:00.357Z,96773.38
2022-08-09T20:48:31.577Z,96781.13
2022-08-09T20:51:03.188Z,96776.88
2022-08-09T20:53:37.804Z,96773.88
2022-08-09T20:56:20.544Z,96770.19
2022-08-09T20:58:50.462Z,96765.88
2022-08-09T21:01:35.121Z,96767.41
2022-08-09T21:05:54.029Z,96770.81
2022-08-09T21:06:56.606Z,96780.88
2022-08-09T21:09:32.860Z,96785.16
2022-08-09T21:14:46.103Z,96786.47
2022-08-09T21:18:11.922Z,96778.94
2022-08-09T21:20:22.842Z,96779.47
2022-08-09T21:22:54.440Z,96779.06
2022-08-09T21:25:44.441Z,96775.72
2022-08-09T21:28:28.084Z,96778.72
2022-08-09T21:31:16.994Z,96773.34
2022-08-09T21:33:51.434Z,96775.88
2022-08-09T21:36:25.903Z,96780.66
2022-08-09T21:38:57.259Z,96778.28
2022-08-09T21:42:04.302Z,96782.09
2022-08-09T21:44:33.527Z,96771.03
2022-08-09T21:47:04.619Z,96775.09
2022-08-09T21:49:39.499Z,96777.91
2022-08-09T21:52:16.669Z,96775.47
2022-08-09T21:54:59.730Z,96775.94
2022-08-09T21:57:38.357Z,96772.78
2022-08-09T22:00:26.016Z,96783.19
2022-08-09T22:02:58.197Z,96777.72
2022-08-09T22:05:37.529Z,96781.28
2022-08-09T22:08:13.697Z,96772.69
2022-08-09T22:11:50.228Z,96770.75
2022-08-09T22:13:35.439Z,96773.47
2022-08-09T22:16:08.311Z,96771.22
2022-08-09T22:18:44.020Z,96769.31
2022-08-09T22:21:25.003Z,96771.44
2022-08-09T22:24:16.933Z,96769.91
2022-08-09T22:26:51.012Z,96752.66
2022-08-09T22:29:24.042Z,96769.22
2022-08-09T22:31:57.855Z,96768.88
2022-08-09T22:34:26.258Z,96772.22
2022-08-09T22:36:58.208Z,96765.72
2022-08-09T22:39:58.048Z,96769.22
2022-08-09T22:42:22.350Z,96770.47
2022-08-09T22:45:00.385Z,96773.69
2022-08-09T22:48:10.230Z,96773.81
2022-08-09T22:50:29.561Z,96775.06
2022-08-09T22:52:58.227Z,96769.75
2022-08-09T22:55:39.419Z,96776.84
2022-08-09T22:58:20.269Z,96774.56
2022-08-09T23:01:05.483Z,96768.09
2022-08-09T23:04:05.244Z,96760.25
2022-08-09T23:06:30.133Z,96759.25
2022-08-09T23:09:02.578Z,96769.88
2022-08-09T23:11:29.686Z,96774.03
2022-08-09T23:13:56.825Z,96768.31
2022-08-09T23:16:23.930Z,96772.66
2022-08-09T23:18:51.082Z,96766.09
2022-08-09T23:21:26.777Z,96762.72
2022-08-09T23:24:05.646Z,96760.50
2022-08-09T23:26:38.072Z,96766.97
2022-08-09T23:29:07.233Z,96753.09
2022-08-09T23:31:34.213Z,96751.41
2022-08-09T23:34:03.713Z,96750.63
2022-08-09T23:36:31.957Z,96741.66
2022-08-09T23:38:59.169Z,96752.28
2022-08-09T23:41:28.988Z,96749.03
2022-08-09T23:44:00.955Z,96738.81
2022-08-09T23:46:29.546Z,96744.41
2022-08-09T23:48:57.858Z,96738.59
2022-08-09T23:51:26.024Z,96740.72
2022-08-09T23:53:55.383Z,96743.84
2022-08-09T23:56:52.665Z,96739.13
2022-08-09T23:59:17.740Z,96744.06
